createdAt,value
2019-03-06T00:00:33.081Z,8.25
2019-03-06T00:03:01.314Z,7.80
2019-03-06T00:05:29.528Z,9.28
2019-03-06T00:07:57.760Z,8.50
2019-03-06T00:10:29.926Z,9.43
2019-03-06T00:12:58.450Z,9.68
2019-03-06T00:15:26.666Z,9.35
2019-03-06T00:17:55.206Z,9.18
2019-03-06T00:20:23.425Z,12.20
2019-03-06T00:22:51.664Z,10.75
2019-03-06T00:25:19.949Z,9.95
2019-03-06T00:27:48.191Z,7.78
2019-03-06T00:30:17.448Z,7.12
2019-03-06T00:32:45.952Z,8.03
2019-03-06T00:35:18.948Z,8.70
2019-03-06T00:37:47.293Z,14.23
2019-03-06T00:40:35.434Z,21.02
2019-03-06T00:43:03.677Z,8.20
2019-03-06T00:45:31.976Z,8.93
2019-03-06T00:48:00.528Z,13.00
2019-03-06T00:50:28.756Z,25.77
2019-03-06T00:52:56.979Z,26.75
2019-03-06T00:55:25.469Z,40.75
2019-03-06T00:57:53.705Z,15.85
2019-03-06T01:00:24.303Z,7.55
2019-03-06T01:02:52.549Z,8.83
2019-03-06T01:05:21.091Z,9.40
2019-03-06T01:07:50.964Z,8.90
2019-03-06T01:10:19.191Z,41.30
2019-03-06T01:12:47.417Z,93.10
2019-03-06T01:15:16.673Z,84.92
2019-03-06T01:17:44.896Z,54.77
2019-03-06T01:20:14.268Z,9.65
2019-03-06T01:22:42.485Z,8.40
2019-03-06T01:25:13.688Z,18.48
2019-03-06T01:27:41.908Z,73.05
2019-03-06T01:30:19.193Z,33.80
2019-03-06T01:32:49.056Z,46.88
2019-03-06T01:35:24.784Z,103.25
2019-03-06T01:37:57.497Z,122.75
2019-03-06T01:40:43.796Z,106.03
2019-03-06T01:43:16.644Z,33.65
2019-03-06T01:45:44.875Z,26.27
2019-03-06T01:48:13.381Z,74.20
2019-03-06T01:50:41.604Z,18.00
2019-03-06T01:53:09.837Z,24.27
2019-03-06T01:55:38.052Z,6.78
2019-03-06T01:58:06.273Z,37.93
2019-03-06T02:00:34.501Z,41.00
2019-03-06T02:03:02.726Z,59.33
2019-03-06T02:05:30.960Z,14.45
2019-03-06T02:07:59.180Z,43.63
2019-03-06T02:10:27.418Z,29.32
2019-03-06T02:12:55.632Z,16.82
2019-03-06T02:15:23.868Z,27.50
2019-03-06T02:17:52.344Z,34.98
2019-03-06T02:20:20.582Z,15.43
2019-03-06T02:22:48.796Z,13.32
2019-03-06T02:25:17.028Z,5.92
2019-03-06T02:27:45.624Z,9.90
2019-03-06T02:30:22.061Z,46.68
2019-03-06T02:32:50.604Z,21.75
2019-03-06T02:35:18.833Z,21.95
2019-03-06T02:37:47.051Z,22.77
2019-03-06T02:40:15.278Z,48.45
2019-03-06T02:42:43.492Z,35.45
2019-03-06T02:45:16.788Z,75.03
2019-03-06T02:47:45.006Z,30.05
2019-03-06T02:50:15.176Z,8.15
2019-03-06T02:52:43.399Z,14.05
2019-03-06T02:55:12.668Z,6.42
2019-03-06T02:57:45.193Z,5.95
2019-03-06T03:00:35.302Z,10.85
2019-03-06T03:03:09.345Z,3.77
2019-03-06T03:05:45.448Z,4.35
2019-03-06T03:08:13.664Z,3.98
2019-03-06T03:10:41.898Z,3.67
2019-03-06T03:13:10.118Z,4.50
2019-03-06T03:15:38.344Z,6.78
2019-03-06T03:18:06.564Z,6.60
2019-03-06T03:20:34.893Z,5.10
2019-03-06T03:23:03.117Z,13.58
2019-03-06T03:25:31.345Z,4.25
2019-03-06T03:27:59.564Z,8.75
2019-03-06T03:30:27.789Z,7.25
2019-03-06T03:32:56.011Z,19.35
2019-03-06T03:35:24.241Z,19.67
2019-03-06T03:37:52.462Z,76.12
2019-03-06T03:40:20.969Z,22.22
2019-03-06T03:42:49.187Z,34.27
2019-03-06T03:45:17.424Z,93.75
2019-03-06T03:47:45.879Z,32.85
2019-03-06T03:50:14.114Z,54.03
2019-03-06T03:52:42.607Z,32.38
2019-03-06T03:55:13.474Z,10.80
2019-03-06T03:57:41.693Z,83.30
2019-03-06T04:00:13.339Z,11.57
2019-03-06T04:02:41.810Z,34.80
2019-03-06T04:05:12.441Z,10.93
2019-03-06T04:07:40.666Z,17.67
2019-03-06T04:10:16.536Z,5.33
2019-03-06T04:12:44.756Z,43.73
2019-03-06T04:15:14.328Z,51.98
2019-03-06T04:17:42.836Z,12.85
2019-03-06T04:20:15.510Z,23.98
2019-03-06T04:22:43.725Z,11.45
2019-03-06T04:25:11.964Z,10.80
2019-03-06T04:27:40.173Z,4.25
2019-03-06T04:30:11.918Z,3.95
2019-03-06T04:32:40.145Z,4.37
2019-03-06T04:35:08.697Z,6.40
2019-03-06T04:37:37.234Z,3.72
2019-03-06T04:40:08.125Z,3.70
2019-03-06T04:42:36.653Z,4.83
2019-03-06T04:45:10.224Z,15.83
2019-03-06T04:47:38.458Z,18.85
2019-03-06T04:50:09.373Z,27.75
2019-03-06T04:52:37.601Z,71.62
2019-03-06T04:55:07.568Z,9.33
2019-03-06T04:57:35.860Z,55.98
2019-03-06T05:00:07.591Z,28.92
2019-03-06T05:02:35.809Z,29.60
2019-03-06T05:05:04.037Z,7.58
2019-03-06T05:07:32.253Z,60.52
2019-03-06T05:10:00.488Z,41.13
2019-03-06T05:12:28.709Z,74.30
2019-03-06T05:14:56.941Z,48.02
2019-03-06T05:17:32.640Z,31.37
2019-03-06T05:20:00.873Z,18.02
2019-03-06T05:22:29.088Z,6.47
2019-03-06T05:24:57.337Z,4.78
2019-03-06T05:27:25.909Z,7.12
2019-03-06T05:29:54.128Z,4.08
2019-03-06T05:32:29.918Z,5.70
2019-03-06T05:35:00.382Z,6.50
2019-03-06T05:37:44.016Z,8.78
2019-03-06T05:40:12.265Z,4.22
2019-03-06T05:42:40.468Z,3.83
2019-03-06T05:45:09.140Z,5.60
2019-03-06T05:47:37.352Z,10.60
2019-03-06T05:50:07.041Z,4.33
2019-03-06T05:52:35.246Z,4.50
2019-03-06T05:55:04.844Z,24.45
2019-03-06T05:57:33.065Z,10.50
2019-03-06T06:00:01.301Z,9.40
2019-03-06T06:02:29.585Z,9.30
2019-03-06T06:04:58.089Z,17.42
2019-03-06T06:07:26.316Z,10.45
2019-03-06T06:09:56.284Z,49.63
2019-03-06T06:12:24.658Z,39.80
2019-03-06T06:14:52.889Z,85.28
2019-03-06T06:17:21.308Z,19.87
2019-03-06T06:19:49.544Z,26.15
2019-03-06T06:25:11.567Z,22.37
2019-03-06T06:27:39.854Z,14.98
2019-03-06T06:30:10.593Z,18.87
2019-03-06T06:32:38.816Z,14.38
2019-03-06T06:35:11.693Z,53.58
2019-03-06T06:37:40.423Z,24.82
2019-03-06T06:40:13.433Z,19.57
2019-03-06T06:42:41.988Z,66.22
2019-03-06T06:45:12.161Z,24.02
2019-03-06T06:48:06.709Z,44.30
2019-03-06T06:50:35.112Z,21.23
2019-03-06T06:53:09.340Z,30.82
2019-03-06T06:55:40.833Z,17.55
2019-03-06T06:58:35.173Z,13.98
2019-03-06T07:01:37.061Z,13.18
2019-03-06T07:04:25.077Z,4.17
2019-03-06T07:07:04.353Z,4.42
2019-03-06T07:09:34.492Z,7.75
2019-03-06T07:12:04.362Z,6.93
2019-03-06T07:14:34.220Z,6.70
2019-03-06T07:17:20.749Z,6.53
2019-03-06T07:19:53.609Z,7.65
2019-03-06T07:22:26.284Z,5.42
2019-03-06T07:24:56.438Z,7.10
2019-03-06T07:27:42.848Z,5.80
2019-03-06T07:30:14.152Z,6.45
2019-03-06T07:32:44.021Z,27.42
2019-03-06T07:36:06.017Z,7.65
2019-03-06T07:38:34.303Z,11.03
2019-03-06T07:41:22.530Z,20.00
2019-03-06T07:43:55.089Z,25.05
2019-03-06T07:46:43.317Z,58.65
2019-03-06T07:49:29.620Z,6.90
2019-03-06T07:52:11.693Z,65.08
2019-03-06T07:54:47.522Z,19.23
2019-03-06T07:57:17.730Z,31.15
2019-03-06T07:59:45.945Z,30.10
2019-03-06T08:02:30.945Z,54.80
2019-03-06T08:04:59.305Z,14.65
2019-03-06T08:07:27.841Z,8.78
2019-03-06T08:09:56.125Z,8.45
2019-03-06T08:12:26.325Z,7.47
2019-03-06T08:15:02.251Z,5.87
2019-03-06T08:17:32.125Z,6.45
2019-03-06T08:20:01.986Z,6.35
2019-03-06T08:22:48.090Z,9.13
2019-03-06T08:25:20.937Z,17.37
2019-03-06T08:27:49.353Z,20.88
2019-03-06T08:30:17.566Z,7.28
2019-03-06T08:32:45.808Z,14.30
2019-03-06T08:35:14.021Z,5.70
2019-03-06T08:37:42.244Z,5.87
2019-03-06T08:40:11.489Z,10.40
2019-03-06T08:42:39.724Z,7.08
2019-03-06T08:45:11.625Z,6.83
2019-03-06T08:47:44.140Z,12.75
2019-03-06T08:50:29.885Z,28.47
2019-03-06T08:53:12.234Z,8.13
2019-03-06T08:55:42.105Z,11.08
2019-03-06T08:58:11.977Z,4.87
2019-03-06T09:00:53.824Z,6.65
2019-03-06T09:03:30.460Z,8.25
2019-03-06T09:06:00.319Z,7.75
2019-03-06T09:08:46.680Z,7.58
2019-03-06T09:11:22.389Z,6.40
2019-03-06T09:14:01.269Z,5.90
2019-03-06T09:16:36.920Z,7.12
2019-03-06T09:19:18.897Z,4.10
2019-03-06T09:21:49.045Z,6.42
2019-03-06T09:24:21.688Z,5.30
2019-03-06T09:27:00.824Z,6.28
2019-03-06T09:29:30.697Z,1.87
2019-03-06T09:32:00.732Z,2.70
2019-03-06T09:34:33.551Z,7.67
2019-03-06T09:37:20.085Z,5.05
2019-03-06T09:39:59.308Z,6.35
2019-03-06T09:42:44.463Z,6.03
2019-03-06T09:45:17.049Z,8.55
2019-03-06T09:47:47.176Z,6.45
2019-03-06T09:50:22.988Z,6.92
2019-03-06T09:52:55.557Z,9.08
2019-03-06T09:55:25.438Z,13.20
2019-03-06T09:58:01.510Z,6.75
2019-03-06T10:00:40.190Z,4.75
2019-03-06T10:03:21.629Z,5.00
2019-03-06T10:05:51.672Z,6.37
2019-03-06T10:08:24.528Z,8.13
2019-03-06T10:11:03.651Z,8.45
2019-03-06T10:13:33.515Z,7.72
2019-03-06T10:16:09.356Z,11.20
2019-03-06T10:18:45.092Z,7.03
2019-03-06T10:21:13.605Z,6.28
2019-03-06T10:23:41.900Z,6.05
2019-03-06T10:26:10.131Z,7.95
2019-03-06T10:28:38.348Z,6.37
2019-03-06T10:31:06.971Z,10.50
2019-03-06T10:33:35.272Z,6.35
2019-03-06T10:36:03.954Z,6.17
2019-03-06T10:38:32.173Z,8.58
2019-03-06T10:41:00.733Z,10.68
2019-03-06T10:43:29.031Z,8.10
2019-03-06T10:45:57.640Z,5.28
2019-03-06T10:48:25.938Z,5.28
2019-03-06T10:50:54.170Z,7.22
2019-03-06T10:53:22.465Z,5.50
2019-03-06T10:55:50.701Z,5.30
2019-03-06T10:58:18.920Z,7.03
2019-03-06T11:00:51.813Z,3.95
2019-03-06T11:03:20.033Z,6.97
2019-03-06T11:05:48.433Z,5.17
2019-03-06T11:08:17.001Z,5.03
2019-03-06T11:10:45.408Z,4.90
2019-03-06T11:13:13.632Z,3.80
2019-03-06T11:15:41.937Z,3.62
2019-03-06T11:18:10.245Z,6.92
2019-03-06T11:20:40.691Z,5.58
2019-03-06T11:23:10.133Z,3.95
2019-03-06T11:25:39.491Z,8.18
2019-03-06T11:28:10.272Z,3.65
2019-03-06T11:30:41.910Z,8.30
2019-03-06T11:33:10.668Z,5.70
2019-03-06T11:35:38.909Z,8.55
2019-03-06T11:38:08.168Z,3.62
2019-03-06T11:40:36.760Z,3.90
2019-03-06T11:43:06.217Z,6.50
2019-03-06T11:45:34.981Z,6.40
2019-03-06T11:48:03.205Z,6.58
2019-03-06T11:50:40.400Z,6.30
2019-03-06T11:53:01.641Z,3.02
2019-03-06T11:55:29.877Z,7.37
2019-03-06T11:57:58.103Z,6.95
2019-03-06T12:00:27.968Z,4.40
2019-03-06T12:02:56.188Z,3.50
2019-03-06T12:05:24.429Z,7.10
2019-03-06T12:07:52.990Z,4.47
2019-03-06T12:10:21.496Z,2.85
2019-03-06T12:12:49.813Z,4.65
2019-03-06T12:15:18.061Z,6.45
2019-03-06T12:17:47.402Z,3.85
2019-03-06T12:20:15.681Z,4.15
2019-03-06T12:22:43.900Z,5.15
2019-03-06T12:25:13.173Z,2.17
2019-03-06T12:27:41.409Z,3.95
2019-03-06T12:30:20.056Z,2.12
2019-03-06T12:32:48.280Z,1.80
2019-03-06T12:35:17.236Z,4.10
2019-03-06T12:37:47.173Z,2.98
2019-03-06T12:40:20.060Z,1.47
2019-03-06T12:42:48.289Z,4.20
2019-03-06T12:45:17.350Z,3.50
2019-03-06T12:47:55.354Z,2.75
2019-03-06T12:50:27.281Z,3.20
2019-03-06T12:52:55.812Z,1.45
2019-03-06T12:55:24.290Z,1.92
2019-03-06T12:57:59.185Z,2.42
2019-03-06T13:00:26.797Z,2.70
2019-03-06T13:02:55.413Z,3.90
2019-03-06T13:05:23.906Z,2.35
2019-03-06T13:07:52.237Z,2.47
2019-03-06T13:10:20.718Z,5.03
2019-03-06T13:12:50.154Z,2.25
2019-03-06T13:15:27.194Z,3.60
2019-03-06T13:17:55.597Z,3.47
2019-03-06T13:20:24.154Z,2.77
2019-03-06T13:22:54.173Z,4.10
2019-03-06T13:25:23.480Z,2.62
2019-03-06T13:27:54.872Z,1.35
2019-03-06T13:30:23.311Z,2.60
2019-03-06T13:32:59.002Z,4.33
2019-03-06T13:35:28.652Z,7.45
2019-03-06T13:37:56.960Z,2.87
2019-03-06T13:40:25.232Z,1.52
2019-03-06T13:42:53.492Z,3.45
2019-03-06T13:45:21.876Z,2.92
2019-03-06T13:47:51.011Z,2.95
2019-03-06T13:50:19.756Z,3.05
2019-03-06T13:52:48.337Z,2.20
2019-03-06T13:55:16.928Z,2.98
2019-03-06T13:57:45.640Z,4.33
2019-03-06T14:00:17.874Z,10.20
2019-03-06T14:02:50.088Z,2.30
2019-03-06T14:05:19.160Z,3.25
2019-03-06T14:07:55.887Z,4.40
2019-03-06T14:10:21.829Z,4.55
2019-03-06T14:12:50.341Z,2.17
2019-03-06T14:15:18.896Z,2.83
2019-03-06T14:17:47.133Z,3.17
2019-03-06T14:20:20.713Z,2.98
2019-03-06T14:22:48.950Z,2.58
2019-03-06T14:25:17.533Z,3.08
2019-03-06T14:27:46.049Z,1.67
2019-03-06T14:30:25.601Z,2.15
2019-03-06T14:32:53.848Z,3.92
2019-03-06T14:35:22.238Z,1.35
2019-03-06T14:37:50.468Z,5.50
2019-03-06T14:40:34.600Z,1.52
2019-03-06T14:43:04.733Z,3.45
2019-03-06T14:45:32.961Z,2.10
2019-03-06T14:48:01.514Z,4.30
2019-03-06T14:50:29.738Z,3.35
2019-03-06T14:52:58.358Z,2.50
2019-03-06T14:55:26.653Z,4.05
2019-03-06T14:57:54.896Z,2.70
2019-03-06T15:00:23.288Z,5.87
2019-03-06T15:02:51.534Z,2.00
2019-03-06T15:05:19.921Z,3.47
2019-03-06T15:07:48.382Z,7.97
2019-03-06T15:10:17.540Z,4.75
2019-03-06T15:12:46.029Z,3.90
2019-03-06T15:15:18.021Z,3.50
2019-03-06T15:17:46.365Z,4.40
2019-03-06T15:20:23.124Z,1.80
2019-03-06T15:22:52.604Z,2.50
2019-03-06T15:25:26.824Z,7.40
2019-03-06T15:27:55.153Z,7.00
2019-03-06T15:30:23.380Z,3.02
2019-03-06T15:32:51.675Z,3.92
2019-03-06T15:35:20.172Z,2.83
2019-03-06T15:37:48.417Z,7.58
2019-03-06T15:40:29.956Z,3.22
2019-03-06T15:42:58.192Z,6.40
2019-03-06T15:45:28.328Z,2.60
2019-03-06T15:47:56.761Z,5.03
2019-03-06T15:50:25.148Z,4.67
2019-03-06T15:52:53.384Z,6.00
2019-03-06T15:55:26.413Z,3.20
2019-03-06T15:57:54.934Z,5.87
2019-03-06T16:00:27.288Z,5.12
2019-03-06T16:02:55.966Z,3.30
2019-03-06T16:05:24.185Z,3.22
2019-03-06T16:07:52.429Z,3.75
2019-03-06T16:10:20.649Z,2.30
2019-03-06T16:12:48.905Z,6.37
2019-03-06T16:15:17.124Z,8.08
2019-03-06T16:17:45.364Z,3.12
2019-03-06T16:20:18.738Z,4.35
2019-03-06T16:22:47.737Z,3.60
2019-03-06T16:25:15.958Z,4.90
2019-03-06T16:27:44.373Z,5.30
2019-03-06T16:30:20.360Z,3.95
2019-03-06T16:32:48.606Z,3.58
2019-03-06T16:35:16.906Z,2.30
2019-03-06T16:37:45.208Z,6.62
2019-03-06T16:40:18.861Z,2.60
2019-03-06T16:42:47.657Z,5.83
2019-03-06T16:45:19.849Z,12.88
2019-03-06T16:47:48.264Z,10.32
2019-03-06T16:50:20.064Z,9.23
2019-03-06T16:52:48.375Z,3.33
2019-03-06T16:55:19.186Z,4.28
2019-03-06T16:57:47.872Z,5.22
2019-03-06T17:00:24.304Z,6.65
2019-03-06T17:02:53.031Z,6.58
2019-03-06T17:05:21.692Z,4.25
2019-03-06T17:07:50.189Z,5.45
2019-03-06T17:10:20.612Z,6.12
2019-03-06T17:12:49.032Z,5.42
2019-03-06T17:15:18.069Z,4.97
2019-03-06T17:17:46.397Z,4.58
2019-03-06T17:20:19.909Z,3.70
2019-03-06T17:22:48.440Z,4.33
2019-03-06T17:25:16.665Z,4.35
2019-03-06T17:27:45.161Z,2.95
2019-03-06T17:30:21.513Z,6.12
2019-03-06T17:33:01.418Z,3.27
2019-03-06T17:35:30.864Z,9.93
2019-03-06T17:37:59.156Z,3.87
2019-03-06T17:40:27.853Z,3.20
2019-03-06T17:42:56.381Z,3.00
2019-03-06T17:45:24.636Z,2.70
2019-03-06T17:47:52.952Z,6.72
2019-03-06T17:50:21.192Z,9.83
2019-03-06T17:52:49.416Z,32.08
2019-03-06T17:55:17.657Z,18.30
2019-03-06T17:57:46.164Z,8.83
2019-03-06T18:00:18.886Z,5.72
2019-03-06T18:02:47.105Z,3.75
2019-03-06T18:05:15.352Z,3.20
2019-03-06T18:07:43.654Z,2.15
2019-03-06T18:10:16.576Z,3.22
2019-03-06T18:12:45.097Z,3.27
2019-03-06T18:15:18.748Z,4.35
2019-03-06T18:17:47.245Z,2.50
2019-03-06T18:20:19.189Z,3.10
2019-03-06T18:22:47.411Z,4.72
2019-03-06T18:25:20.318Z,3.40
2019-03-06T18:27:48.540Z,2.50
2019-03-06T18:30:18.193Z,2.77
2019-03-06T18:32:46.688Z,2.85
2019-03-06T18:35:16.924Z,3.62
2019-03-06T18:37:45.316Z,3.62
2019-03-06T18:40:24.152Z,3.55
2019-03-06T18:42:52.384Z,7.70
2019-03-06T18:45:21.174Z,6.05
2019-03-06T18:47:49.469Z,3.37
2019-03-06T18:50:18.918Z,4.85
2019-03-06T18:52:47.476Z,2.75
2019-03-06T18:55:16.651Z,4.25
2019-03-06T18:57:44.883Z,2.83
2019-03-06T19:00:25.649Z,3.17
2019-03-06T19:02:53.941Z,6.55
2019-03-06T19:05:22.453Z,3.83
2019-03-06T19:07:51.020Z,3.42
2019-03-06T19:10:22.515Z,6.00
2019-03-06T19:12:51.113Z,4.90
2019-03-06T19:15:21.552Z,5.28
2019-03-06T19:17:49.773Z,3.25
2019-03-06T19:20:19.356Z,2.85
2019-03-06T19:22:47.821Z,3.65
2019-03-06T19:25:16.502Z,2.65
2019-03-06T19:27:44.903Z,2.90
2019-03-06T19:30:26.602Z,2.60
2019-03-06T19:32:55.193Z,5.70
2019-03-06T19:35:27.509Z,6.17
2019-03-06T19:37:55.805Z,4.08
2019-03-06T19:40:24.328Z,2.75
2019-03-06T19:42:52.614Z,3.55
2019-03-06T19:45:24.498Z,3.92
2019-03-06T19:47:52.720Z,3.35
2019-03-06T19:50:25.485Z,3.15
2019-03-06T19:52:53.291Z,3.35
2019-03-06T19:55:21.980Z,6.08
2019-03-06T19:57:57.388Z,3.92
2019-03-06T20:00:29.827Z,4.35
2019-03-06T20:02:58.787Z,3.58
2019-03-06T20:05:31.526Z,3.65
2019-03-06T20:08:00.896Z,3.17
2019-03-06T20:10:29.141Z,3.65
2019-03-06T20:12:57.364Z,3.75
2019-03-06T20:15:25.692Z,2.87
2019-03-06T20:17:54.087Z,3.40
2019-03-06T20:20:22.328Z,4.45
2019-03-06T20:22:50.553Z,5.25
2019-03-06T20:25:19.410Z,5.70
2019-03-06T20:27:47.772Z,4.60
2019-03-06T20:30:20.880Z,3.20
2019-03-06T20:32:49.093Z,2.47
2019-03-06T20:35:25.453Z,6.80
2019-03-06T20:37:53.681Z,4.47
2019-03-06T20:40:22.232Z,3.72
2019-03-06T20:42:50.521Z,1.82
2019-03-06T20:45:19.200Z,3.12
2019-03-06T20:47:47.428Z,3.17
2019-03-06T20:50:17.009Z,4.10
2019-03-06T20:52:45.237Z,5.00
2019-03-06T20:55:15.346Z,3.45
2019-03-06T20:57:43.684Z,3.47
2019-03-06T21:00:25.694Z,3.25
2019-03-06T21:02:53.991Z,4.72
2019-03-06T21:05:23.220Z,3.75
2019-03-06T21:07:51.745Z,3.90
2019-03-06T21:10:20.709Z,4.50
2019-03-06T21:12:48.941Z,3.33
2019-03-06T21:15:18.620Z,3.08
2019-03-06T21:17:47.104Z,2.72
2019-03-06T21:20:17.249Z,3.12
2019-03-06T21:22:47.409Z,2.83
2019-03-06T21:25:17.917Z,6.93
2019-03-06T21:27:46.300Z,4.92
2019-03-06T21:30:18.893Z,2.22
2019-03-06T21:32:47.229Z,4.17
2019-03-06T21:35:15.796Z,3.80
2019-03-06T21:37:44.377Z,4.15
2019-03-06T21:40:12.595Z,3.58
2019-03-06T21:42:40.837Z,5.53
2019-03-06T21:45:11.851Z,4.28
2019-03-06T21:47:40.453Z,4.03
2019-03-06T21:50:13.713Z,4.47
2019-03-06T21:52:42.025Z,6.37
2019-03-06T21:55:12.559Z,4.40
2019-03-06T21:57:40.792Z,2.83
2019-03-06T22:00:22.735Z,4.33
2019-03-06T22:02:51.321Z,2.70
2019-03-06T22:05:19.637Z,4.75
2019-03-06T22:07:50.296Z,6.10
2019-03-06T22:10:17.889Z,3.92
2019-03-06T22:12:46.117Z,3.25
2019-03-06T22:15:17.036Z,4.87
2019-03-06T22:17:45.274Z,4.33
2019-03-06T22:20:14.428Z,2.72
2019-03-06T22:22:42.670Z,5.30
2019-03-06T22:25:12.729Z,3.87
2019-03-06T22:27:40.960Z,5.67
2019-03-06T22:30:22.435Z,5.10
2019-03-06T22:35:17.957Z,2.92
2019-03-06T22:37:46.192Z,8.33
2019-03-06T22:40:19.623Z,3.72
2019-03-06T22:42:47.854Z,3.37
2019-03-06T22:45:18.277Z,2.92
2019-03-06T22:47:46.513Z,7.72
2019-03-06T22:50:15.576Z,4.80
2019-03-06T22:52:43.808Z,4.80
2019-03-06T22:55:15.028Z,2.80
2019-03-06T22:57:43.256Z,5.22
2019-03-06T23:00:29.909Z,5.47
2019-03-06T23:02:58.384Z,5.92
2019-03-06T23:05:28.316Z,6.85
2019-03-06T23:07:56.560Z,4.08
2019-03-06T23:10:25.093Z,5.60
2019-03-06T23:12:53.328Z,3.08
2019-03-06T23:15:21.548Z,3.55
2019-03-06T23:17:49.780Z,4.33
2019-03-06T23:20:18.000Z,4.00
2019-03-06T23:22:46.232Z,3.22
2019-03-06T23:25:14.456Z,5.50
2019-03-06T23:27:42.688Z,3.10
2019-03-06T23:30:15.414Z,3.87
2019-03-06T23:32:43.645Z,5.08
2019-03-06T23:35:11.866Z,3.62
2019-03-06T23:37:40.096Z,4.22
2019-03-06T23:40:10.420Z,2.70
2019-03-06T23:42:38.651Z,3.65
2019-03-06T23:45:08.416Z,4.42
2019-03-06T23:47:36.649Z,3.52
2019-03-06T23:50:06.208Z,4.42
2019-03-06T23:52:36.081Z,3.80
2019-03-06T23:55:04.382Z,5.47
2019-03-06T23:57:32.669Z,7.83
